createdAt,value
2023-05-17T00:00:01.129Z,1018.96
2023-05-17T00:01:00.419Z,1018.94
2023-05-17T00:02:01.086Z,1019.01
2023-05-17T00:03:01.176Z,1019.00
2023-05-17T00:04:00.392Z,1018.98
2023-05-17T00:05:00.416Z,1018.96
2023-05-17T00:06:00.453Z,1019.00
2023-05-17T00:07:01.044Z,1018.95
2023-05-17T00:08:01.041Z,1018.96
2023-05-17T00:09:00.361Z,1018.95
2023-05-17T00:10:00.341Z,1018.93
2023-05-17T00:11:00.337Z,1018.89
2023-05-17T00:12:00.306Z,1018.91
2023-05-17T00:13:01.004Z,1018.86
2023-05-17T00:14:00.293Z,1018.86
2023-05-17T00:15:00.295Z,1018.91
2023-05-17T00:16:00.280Z,1018.87
2023-05-17T00:17:00.950Z,1018.85
2023-05-17T00:18:01.048Z,1018.81
2023-05-17T00:19:00.366Z,1018.84
2023-05-17T00:20:00.235Z,1018.84
2023-05-17T00:21:00.883Z,1018.87
2023-05-17T00:22:00.889Z,1018.89
2023-05-17T00:23:00.945Z,1018.89
2023-05-17T00:24:00.180Z,1018.89
2023-05-17T00:25:00.244Z,1018.91
2023-05-17T00:26:00.853Z,1018.89
2023-05-17T00:27:00.139Z,1018.90
2023-05-17T00:28:00.131Z,1018.87
2023-05-17T00:29:00.851Z,1018.84
2023-05-17T00:30:00.190Z,1018.89
2023-05-17T00:31:00.800Z,1018.83
2023-05-17T00:32:00.794Z,1018.86
2023-05-17T00:33:00.823Z,1018.87
2023-05-17T00:34:00.072Z,1018.85
2023-05-17T00:35:00.756Z,1018.88
2023-05-17T00:36:00.744Z,1018.84
2023-05-17T00:37:00.041Z,1018.88
2023-05-17T00:38:00.717Z,1018.89
2023-05-17T00:39:00.041Z,1018.91
2023-05-17T00:40:00.700Z,1018.98
2023-05-17T00:40:59.991Z,1018.95
2023-05-17T00:42:00.004Z,1018.95
2023-05-17T00:43:00.681Z,1018.96
2023-05-17T00:44:00.639Z,1018.99
2023-05-17T00:44:59.963Z,1018.98
2023-05-17T00:46:00.636Z,1018.96
2023-05-17T00:47:00.082Z,1018.99
2023-05-17T00:48:00.679Z,1018.98
2023-05-17T00:49:00.587Z,1018.91
2023-05-17T00:49:59.906Z,1018.91
2023-05-17T00:50:59.899Z,1018.92
2023-05-17T00:52:00.581Z,1018.89
2023-05-17T00:53:00.541Z,1018.91
2023-05-17T00:53:59.849Z,1018.89
2023-05-17T00:54:59.862Z,1018.87
2023-05-17T00:55:59.833Z,1018.85
2023-05-17T00:56:59.838Z,1018.90
2023-05-17T00:57:59.868Z,1018.92
2023-05-17T00:59:00.535Z,1018.90
2023-05-17T01:00:00.505Z,1018.89
2023-05-17T01:01:00.479Z,1018.90
2023-05-17T01:02:00.441Z,1018.92
2023-05-17T01:02:59.895Z,1018.92
2023-05-17T01:04:00.497Z,1018.91
2023-05-17T01:05:00.601Z,1018.97
2023-05-17T01:06:00.445Z,1018.94
2023-05-17T01:07:00.398Z,1018.92
2023-05-17T01:08:00.400Z,1018.93
2023-05-17T01:08:59.719Z,1018.92
2023-05-17T01:09:59.681Z,1018.92
2023-05-17T01:11:00.378Z,1018.94
2023-05-17T01:12:00.354Z,1018.91
2023-05-17T01:12:59.653Z,1018.96
2023-05-17T01:14:00.331Z,1018.95
2023-05-17T01:15:00.327Z,1018.99
2023-05-17T01:15:59.648Z,1018.97
2023-05-17T01:16:59.629Z,1018.94
2023-05-17T01:17:59.705Z,1018.90
2023-05-17T01:18:59.646Z,1018.93
2023-05-17T01:19:59.699Z,1018.93
2023-05-17T01:21:00.244Z,1018.93
2023-05-17T01:22:00.249Z,1018.89
2023-05-17T01:22:59.548Z,1018.93
2023-05-17T01:24:00.231Z,1018.92
2023-05-17T01:24:59.541Z,1018.92
2023-05-17T01:26:00.186Z,1018.90
2023-05-17T01:26:59.506Z,1018.95
2023-05-17T01:28:00.187Z,1018.96
2023-05-17T01:29:00.171Z,1018.91
2023-05-17T01:30:00.181Z,1018.94
2023-05-17T01:30:59.458Z,1018.93
2023-05-17T01:31:59.455Z,1018.92
2023-05-17T01:33:00.189Z,1018.94
2023-05-17T01:33:59.471Z,1018.95
2023-05-17T01:35:00.087Z,1018.95
2023-05-17T01:35:59.397Z,1018.98
2023-05-17T01:37:00.088Z,1018.96
2023-05-17T01:38:00.081Z,1018.99
2023-05-17T01:38:59.414Z,1019.03
2023-05-17T01:40:00.040Z,1019.04
2023-05-17T01:41:00.045Z,1019.05
2023-05-17T01:42:00.039Z,1019.04
2023-05-17T01:42:59.330Z,1019.03
2023-05-17T01:43:59.346Z,1019.03
2023-05-17T01:44:59.995Z,1019.05
2023-05-17T01:45:59.991Z,1019.03
2023-05-17T01:46:59.289Z,1019.02
2023-05-17T01:48:00.021Z,1019.04
2023-05-17T01:48:59.998Z,1019.12
2023-05-17T01:49:59.945Z,1019.07
2023-05-17T01:50:59.937Z,1019.10
2023-05-17T01:51:59.926Z,1019.08
2023-05-17T01:52:59.893Z,1019.07
2023-05-17T01:53:59.883Z,1019.13
2023-05-17T01:54:59.205Z,1019.11
2023-05-17T01:55:59.882Z,1019.15
2023-05-17T01:56:59.875Z,1019.14
2023-05-17T01:57:59.852Z,1019.12
2023-05-17T01:58:59.849Z,1019.13
2023-05-17T01:59:59.836Z,1019.11
2023-05-17T02:00:59.834Z,1019.08
2023-05-17T02:01:59.819Z,1019.14
2023-05-17T02:02:59.824Z,1019.12
2023-05-17T02:03:59.826Z,1019.12
2023-05-17T02:04:59.838Z,1019.13
2023-05-17T02:05:59.773Z,1019.12
2023-05-17T02:06:59.105Z,1019.14
2023-05-17T02:07:59.087Z,1019.17
2023-05-17T02:08:59.774Z,1019.15
2023-05-17T02:09:59.734Z,1019.18
2023-05-17T02:10:59.030Z,1019.18
2023-05-17T02:11:59.695Z,1019.18
2023-05-17T02:12:59.698Z,1019.27
2023-05-17T02:13:59.024Z,1019.21
2023-05-17T02:14:59.676Z,1019.24
2023-05-17T02:15:59.061Z,1019.26
2023-05-17T02:16:59.642Z,1019.30
2023-05-17T02:17:59.109Z,1019.30
2023-05-17T02:18:59.780Z,1019.30
2023-05-17T02:19:58.944Z,1019.38
2023-05-17T02:20:58.952Z,1019.36
2023-05-17T02:21:58.946Z,1019.38
2023-05-17T02:22:59.597Z,1019.30
2023-05-17T02:23:58.902Z,1019.30
2023-05-17T02:24:58.898Z,1019.35
2023-05-17T02:25:59.543Z,1019.35
2023-05-17T02:26:59.551Z,1019.35
2023-05-17T02:27:58.849Z,1019.42
2023-05-17T02:28:59.531Z,1019.41
2023-05-17T02:29:59.526Z,1019.45
2023-05-17T02:30:59.494Z,1019.43
2023-05-17T02:31:59.504Z,1019.43
2023-05-17T02:32:59.633Z,1019.45
2023-05-17T02:33:58.825Z,1019.44
2023-05-17T02:34:58.816Z,1019.42
2023-05-17T02:35:59.442Z,1019.47
2023-05-17T02:36:59.452Z,1019.47
2023-05-17T02:37:59.443Z,1019.48
2023-05-17T02:38:59.428Z,1019.47
2023-05-17T02:39:59.406Z,1019.42
2023-05-17T02:40:59.406Z,1019.47
2023-05-17T02:41:58.756Z,1019.47
2023-05-17T02:42:58.704Z,1019.51
2023-05-17T02:43:59.385Z,1019.49
2023-05-17T02:44:59.345Z,1019.45
2023-05-17T02:45:58.665Z,1019.49
2023-05-17T02:46:59.354Z,1019.49
2023-05-17T02:47:59.369Z,1019.49
2023-05-17T02:48:58.671Z,1019.53
2023-05-17T02:49:58.641Z,1019.51
2023-05-17T02:50:59.296Z,1019.56
2023-05-17T02:51:59.281Z,1019.55
2023-05-17T02:52:58.592Z,1019.53
2023-05-17T02:53:58.591Z,1019.55
2023-05-17T02:54:59.252Z,1019.54
2023-05-17T02:55:58.568Z,1019.55
2023-05-17T02:56:58.545Z,1019.53
2023-05-17T02:57:59.224Z,1019.52
2023-05-17T02:58:59.190Z,1019.55
2023-05-17T02:59:58.513Z,1019.53
2023-05-17T03:00:58.533Z,1019.53
2023-05-17T03:01:59.190Z,1019.53
2023-05-17T03:02:59.231Z,1019.51
2023-05-17T03:03:59.409Z,1019.57
2023-05-17T03:04:59.150Z,1019.59
2023-05-17T03:06:00.908Z,1019.59
2023-05-17T03:06:59.120Z,1019.56
2023-05-17T03:07:59.101Z,1019.60
2023-05-17T03:08:59.104Z,1019.61
2023-05-17T03:09:59.094Z,1019.58
2023-05-17T03:10:59.081Z,1019.60
2023-05-17T03:11:58.384Z,1019.59
2023-05-17T03:12:59.053Z,1019.56
2023-05-17T03:13:58.409Z,1019.60
2023-05-17T03:14:58.339Z,1019.56
2023-05-17T03:15:59.028Z,1019.58
2023-05-17T03:16:59.002Z,1019.59
2023-05-17T03:17:58.474Z,1019.72
2023-05-17T03:18:59.172Z,1019.68
2023-05-17T03:19:58.349Z,1019.72
2023-05-17T03:20:58.288Z,1019.73
2023-05-17T03:21:58.947Z,1019.77
2023-05-17T03:22:58.258Z,1019.79
2023-05-17T03:23:58.250Z,1019.80
2023-05-17T03:24:58.254Z,1019.83
2023-05-17T03:25:58.312Z,1019.84
2023-05-17T03:26:58.897Z,1019.86
2023-05-17T03:27:58.239Z,1019.87
2023-05-17T03:28:58.225Z,1019.89
2023-05-17T03:29:58.208Z,1019.89
2023-05-17T03:30:58.915Z,1019.84
2023-05-17T03:31:58.850Z,1019.87
2023-05-17T03:32:59.060Z,1019.88
2023-05-17T03:33:58.224Z,1019.89
2023-05-17T03:34:58.130Z,1019.88
2023-05-17T03:35:58.149Z,1019.91
2023-05-17T03:36:58.111Z,1019.91
2023-05-17T03:37:58.104Z,1019.93
2023-05-17T03:38:58.781Z,1019.96
2023-05-17T03:39:58.088Z,1019.97
2023-05-17T03:40:58.744Z,1019.98
2023-05-17T03:41:58.077Z,1020.00
2023-05-17T03:42:58.051Z,1020.02
2023-05-17T03:43:58.728Z,1020.03
2023-05-17T03:44:58.696Z,1020.05
2023-05-17T03:45:58.033Z,1020.03
2023-05-17T03:46:58.028Z,1020.05
2023-05-17T03:47:58.709Z,1020.03
2023-05-17T03:48:58.684Z,1020.04
2023-05-17T03:49:57.996Z,1020.04
2023-05-17T03:50:58.642Z,1020.05
2023-05-17T03:51:57.963Z,1020.07
2023-05-17T03:52:57.940Z,1020.07
2023-05-17T03:53:58.628Z,1020.07
2023-05-17T03:54:58.583Z,1020.11
2023-05-17T03:55:57.934Z,1020.13
2023-05-17T03:56:58.587Z,1020.10
2023-05-17T03:57:57.953Z,1020.16
2023-05-17T03:58:57.956Z,1020.14
2023-05-17T03:59:58.538Z,1020.16
2023-05-17T04:00:57.992Z,1020.17
2023-05-17T04:01:58.539Z,1020.18
2023-05-17T04:02:57.896Z,1020.15
2023-05-17T04:03:57.892Z,1020.18
2023-05-17T04:04:57.880Z,1020.20
2023-05-17T04:05:58.489Z,1020.17
2023-05-17T04:06:58.470Z,1020.20
2023-05-17T04:07:57.771Z,1020.21
2023-05-17T04:08:58.428Z,1020.21
2023-05-17T04:09:57.782Z,1020.26
2023-05-17T04:10:57.741Z,1020.28
2023-05-17T04:11:57.741Z,1020.26
2023-05-17T04:12:58.418Z,1020.24
2023-05-17T04:13:58.388Z,1020.22
2023-05-17T04:14:58.385Z,1020.29
2023-05-17T04:15:57.782Z,1020.30
2023-05-17T04:16:58.381Z,1020.25
2023-05-17T04:17:58.425Z,1020.32
2023-05-17T04:18:58.433Z,1020.30
2023-05-17T04:19:57.707Z,1020.39
2023-05-17T04:20:57.637Z,1020.36
2023-05-17T04:21:58.319Z,1020.33
2023-05-17T04:22:58.328Z,1020.38
2023-05-17T04:23:57.632Z,1020.38
2023-05-17T04:24:58.282Z,1020.40
2023-05-17T04:25:58.268Z,1020.48
2023-05-17T04:26:58.290Z,1020.46
2023-05-17T04:27:58.229Z,1020.50
2023-05-17T04:28:58.236Z,1020.47
2023-05-17T04:29:57.563Z,1020.52
2023-05-17T04:30:57.541Z,1020.59
2023-05-17T04:31:58.188Z,1020.57
2023-05-17T04:32:58.229Z,1020.63
2023-05-17T04:33:57.593Z,1020.61
2023-05-17T04:34:58.175Z,1020.64
2023-05-17T04:35:58.194Z,1020.63
2023-05-17T04:36:58.133Z,1020.66
2023-05-17T04:37:57.472Z,1020.70
2023-05-17T04:38:57.432Z,1020.68
2023-05-17T04:39:58.121Z,1020.71
2023-05-17T04:40:57.434Z,1020.78
2023-05-17T04:41:58.079Z,1020.75
2023-05-17T04:42:57.426Z,1020.75
2023-05-17T04:43:58.077Z,1020.79
2023-05-17T04:44:58.069Z,1020.81
2023-05-17T04:45:58.038Z,1020.86
2023-05-17T04:46:58.057Z,1020.87
2023-05-17T04:47:57.450Z,1020.91
2023-05-17T04:48:58.345Z,1020.92
2023-05-17T04:49:57.325Z,1020.95
2023-05-17T04:50:57.982Z,1021.01
2023-05-17T04:51:57.998Z,1021.03
2023-05-17T04:52:57.314Z,1021.05
2023-05-17T04:53:57.993Z,1021.07
2023-05-17T04:54:57.293Z,1021.12
2023-05-17T04:55:57.278Z,1021.11
2023-05-17T04:56:57.936Z,1021.15
2023-05-17T04:57:57.238Z,1021.14
2023-05-17T04:58:57.944Z,1021.19
2023-05-17T04:59:57.241Z,1021.19
2023-05-17T05:00:57.890Z,1021.23
2023-05-17T05:01:57.889Z,1021.23
2023-05-17T05:02:57.218Z,1021.23
2023-05-17T05:03:57.944Z,1021.25
2023-05-17T05:04:57.843Z,1021.23
2023-05-17T05:05:57.157Z,1021.26
2023-05-17T05:06:57.830Z,1021.28
2023-05-17T05:07:57.813Z,1021.35
2023-05-17T05:08:57.793Z,1021.29
2023-05-17T05:09:57.790Z,1021.37
2023-05-17T05:10:57.786Z,1021.37
2023-05-17T05:11:57.084Z,1021.39
2023-05-17T05:12:57.076Z,1021.49
2023-05-17T05:13:57.110Z,1021.46
2023-05-17T05:14:58.507Z,1021.48
2023-05-17T05:15:57.729Z,1021.37
2023-05-17T05:16:57.728Z,1021.48
2023-05-17T05:17:57.727Z,1021.37
2023-05-17T05:18:57.196Z,1021.56
2023-05-17T05:19:57.161Z,1021.37
2023-05-17T05:20:57.678Z,1021.49
2023-05-17T05:21:57.661Z,1021.50
2023-05-17T05:22:57.631Z,1021.58
2023-05-17T05:23:56.967Z,1021.60
2023-05-17T05:24:57.630Z,1021.57
2023-05-17T05:25:57.632Z,1021.56
2023-05-17T05:26:57.605Z,1021.61
2023-05-17T05:27:57.581Z,1021.63
2023-05-17T05:28:56.908Z,1021.67
2023-05-17T05:29:56.902Z,1021.71
2023-05-17T05:30:57.561Z,1021.74
2023-05-17T05:31:56.898Z,1021.73
2023-05-17T05:32:57.616Z,1021.80
2023-05-17T05:33:57.554Z,1021.75
2023-05-17T05:34:56.830Z,1021.72
2023-05-17T05:35:56.828Z,1021.72
2023-05-17T05:36:57.486Z,1021.80
2023-05-17T05:37:56.806Z,1021.81
2023-05-17T05:38:57.484Z,1021.78
2023-05-17T05:39:57.468Z,1021.80
2023-05-17T05:40:56.783Z,1021.82
2023-05-17T05:41:56.782Z,1021.82
2023-05-17T05:42:56.745Z,1021.87
2023-05-17T05:43:57.426Z,1021.85
2023-05-17T05:44:57.416Z,1021.89
2023-05-17T05:45:56.702Z,1021.91
2023-05-17T05:46:57.374Z,1021.89
2023-05-17T05:47:56.797Z,1021.92
2023-05-17T05:48:57.399Z,1021.91
2023-05-17T05:49:56.668Z,1021.95
2023-05-17T05:50:57.337Z,1021.95
2023-05-17T05:51:57.324Z,1021.93
2023-05-17T05:53:03.854Z,1022.01
2023-05-17T05:53:58.317Z,1022.08
2023-05-17T05:54:56.702Z,1022.08
2023-05-17T05:55:57.297Z,1022.05
2023-05-17T05:56:57.291Z,1022.15
2023-05-17T05:57:56.578Z,1022.17
2023-05-17T05:58:56.570Z,1022.19
2023-05-17T05:59:57.270Z,1022.20
2023-05-17T06:00:57.229Z,1022.26
2023-05-17T06:01:57.229Z,1022.30
2023-05-17T06:02:57.273Z,1022.37
2023-05-17T06:03:56.630Z,1022.45
2023-05-17T06:04:57.183Z,1022.43
2023-05-17T06:05:57.243Z,1022.46
2023-05-17T06:06:57.218Z,1022.39
2023-05-17T06:07:56.493Z,1022.44
2023-05-17T06:08:59.473Z,1022.48
2023-05-17T06:09:56.449Z,1022.42
2023-05-17T06:10:57.141Z,1022.45
2023-05-17T06:11:56.431Z,1022.41
2023-05-17T06:12:56.422Z,1022.48
2023-05-17T06:13:57.116Z,1022.46
2023-05-17T06:14:56.408Z,1022.50
2023-05-17T06:15:56.396Z,1022.49
2023-05-17T06:16:56.383Z,1022.48
2023-05-17T06:17:57.109Z,1022.55
2023-05-17T06:18:57.106Z,1022.55
2023-05-17T06:19:56.420Z,1022.57
2023-05-17T06:20:56.323Z,1022.60
2023-05-17T06:21:56.334Z,1022.28
2023-05-17T06:22:57.006Z,1022.40
2023-05-17T06:23:56.334Z,1022.35
2023-05-17T06:24:56.986Z,1022.59
2023-05-17T06:25:56.971Z,1022.38
2023-05-17T06:26:56.962Z,1022.83
2023-05-17T06:27:56.272Z,1022.45
2023-05-17T06:28:56.288Z,1022.42
2023-05-17T06:29:56.938Z,1022.38
2023-05-17T06:30:56.922Z,1022.29
2023-05-17T06:31:56.959Z,1022.36
2023-05-17T06:32:56.269Z,1022.35
2023-05-17T06:33:56.279Z,1022.35
2023-05-17T06:34:56.201Z,1022.36
2023-05-17T06:35:57.875Z,1022.53
2023-05-17T06:36:56.158Z,1022.46
2023-05-17T06:37:56.834Z,1022.52
2023-05-17T06:38:56.144Z,1022.48
2023-05-17T06:40:04.161Z,1022.48
2023-05-17T06:40:59.045Z,1022.48
2023-05-17T06:41:56.119Z,1022.44
2023-05-17T06:42:56.113Z,1022.48
2023-05-17T06:43:56.780Z,1022.46
2023-05-17T06:44:56.772Z,1022.40
2023-05-17T06:45:56.071Z,1022.38
2023-05-17T06:46:56.098Z,1022.42
2023-05-17T06:47:56.797Z,1022.42
2023-05-17T06:48:56.397Z,1022.46
2023-05-17T06:49:56.033Z,1022.45
2023-05-17T06:50:56.018Z,1022.54
2023-05-17T06:51:56.121Z,1022.50
2023-05-17T06:52:56.678Z,1022.45
2023-05-17T06:53:56.227Z,1022.51
2023-05-17T06:54:56.652Z,1022.53
2023-05-17T06:55:55.981Z,1022.51
2023-05-17T06:56:56.615Z,1022.48
2023-05-17T06:57:55.944Z,1023.01
2023-05-17T06:58:55.952Z,1022.97
2023-05-17T06:59:56.618Z,1023.00
2023-05-17T07:00:55.941Z,1022.97
2023-05-17T07:01:56.561Z,1022.98
2023-05-17T07:02:56.004Z,1023.00
2023-05-17T07:03:55.956Z,1022.72
2023-05-17T07:04:56.589Z,1023.02
2023-05-17T07:05:56.530Z,1023.00
2023-05-17T07:06:56.531Z,1022.97
2023-05-17T07:07:55.820Z,1022.94
2023-05-17T07:08:55.848Z,1022.93
2023-05-17T07:09:55.817Z,1022.80
2023-05-17T07:10:56.468Z,1022.99
2023-05-17T07:11:55.788Z,1022.92
2023-05-17T07:12:55.784Z,1022.97
2023-05-17T07:13:56.481Z,1022.98
2023-05-17T07:14:55.770Z,1022.95
2023-05-17T07:15:55.757Z,1023.01
2023-05-17T07:16:56.422Z,1023.03
2023-05-17T07:17:55.769Z,1022.97
2023-05-17T07:18:55.775Z,1023.02
2023-05-17T07:19:55.831Z,1022.87
2023-05-17T07:20:55.693Z,1023.06
2023-05-17T07:21:55.678Z,1023.02
2023-05-17T07:22:55.657Z,1022.81
2023-05-17T07:23:55.661Z,1022.84
2023-05-17T07:24:55.869Z,1022.81
2023-05-17T07:25:55.636Z,1022.66
2023-05-17T07:26:55.644Z,1022.67
2023-05-17T07:27:56.304Z,1022.68
2023-05-17T07:28:56.279Z,1022.70
2023-05-17T07:29:56.263Z,1022.72
2023-05-17T07:30:55.589Z,1022.69
2023-05-17T07:31:56.542Z,1022.72
2023-05-17T07:32:56.295Z,1022.73
2023-05-17T07:33:56.256Z,1022.75
2023-05-17T07:34:55.567Z,1022.68
2023-05-17T07:35:56.247Z,1022.64
2023-05-17T07:36:55.519Z,1022.72
2023-05-17T07:37:56.191Z,1022.76
2023-05-17T07:38:55.520Z,1022.72
2023-05-17T07:39:56.178Z,1022.72
2023-05-17T07:40:56.194Z,1022.76
2023-05-17T07:41:56.150Z,1022.97
2023-05-17T07:42:56.123Z,1022.84
2023-05-17T07:43:56.260Z,1022.78
2023-05-17T07:44:56.131Z,1022.75
2023-05-17T07:45:55.490Z,1022.84
2023-05-17T07:46:55.459Z,1022.80
2023-05-17T07:47:56.158Z,1022.79
2023-05-17T07:48:58.332Z,1022.82
2023-05-17T07:49:55.386Z,1022.80
2023-05-17T07:50:55.387Z,1022.86
2023-05-17T07:51:56.047Z,1022.83
2023-05-17T07:52:55.411Z,1022.85
2023-05-17T07:53:56.027Z,1022.90
2023-05-17T07:54:55.337Z,1022.92
2023-05-17T07:55:55.317Z,1022.92
2023-05-17T07:56:55.981Z,1022.94
2023-05-17T07:57:55.966Z,1022.87
2023-05-17T07:58:55.966Z,1022.83
2023-05-17T07:59:55.970Z,1023.02
2023-05-17T08:00:55.271Z,1022.99
2023-05-17T08:01:55.288Z,1022.96
2023-05-17T08:02:57.768Z,1023.05
2023-05-17T08:03:57.685Z,1023.22
2023-05-17T08:04:56.272Z,1023.26
2023-05-17T08:05:56.242Z,1023.22
2023-05-17T08:06:56.190Z,1023.35
2023-05-17T08:07:57.632Z,1023.30
2023-05-17T08:08:57.618Z,1023.33
2023-05-17T08:09:56.137Z,1023.25
2023-05-17T08:10:56.128Z,1023.33
2023-05-17T08:11:56.137Z,1023.35
2023-05-17T08:12:56.079Z,1023.17
2023-05-17T08:13:55.194Z,1023.09
2023-05-17T08:14:58.057Z,1023.09
2023-05-17T08:16:08.867Z,1023.18
2023-05-17T08:16:56.093Z,1023.10
2023-05-17T08:17:56.219Z,1023.11
2023-05-17T08:18:58.152Z,1023.11
2023-05-17T08:19:57.523Z,1023.12
2023-05-17T08:20:56.513Z,1023.10
2023-05-17T08:21:56.028Z,1023.24
2023-05-17T08:22:55.988Z,1023.11
2023-05-17T08:23:57.455Z,1023.22
2023-05-17T08:24:57.445Z,1023.17
2023-05-17T08:25:57.451Z,1023.18
2023-05-17T08:26:55.933Z,1023.19
2023-05-17T08:27:57.494Z,1023.32
2023-05-17T08:28:57.431Z,1023.30
2023-05-17T08:29:57.437Z,1023.28
2023-05-17T08:30:55.629Z,1023.28
2023-05-17T08:31:57.378Z,1023.35
2023-05-17T08:32:55.937Z,1023.30
2023-05-17T08:33:54.944Z,1023.38
2023-05-17T08:34:54.917Z,1023.32
2023-05-17T08:35:55.647Z,1023.28
2023-05-17T08:36:55.584Z,1023.24
2023-05-17T08:37:57.309Z,1023.19
2023-05-17T08:38:54.871Z,1023.19
2023-05-17T08:39:55.537Z,1023.20
2023-05-17T08:40:54.834Z,1023.19
2023-05-17T08:41:55.510Z,1023.23
2023-05-17T08:42:54.814Z,1023.15
2023-05-17T08:43:54.826Z,1023.15
2023-05-17T08:44:55.739Z,1023.22
2023-05-17T08:45:55.461Z,1023.18
2023-05-17T08:46:55.731Z,1023.18
2023-05-17T08:47:57.239Z,1023.14
2023-05-17T08:48:57.295Z,1023.19
2023-05-17T08:49:55.417Z,1023.18
2023-05-17T08:50:57.325Z,1023.21
2023-05-17T08:51:55.664Z,1023.30
2023-05-17T08:52:55.706Z,1023.28
2023-05-17T08:53:55.668Z,1023.26
2023-05-17T08:54:57.134Z,1023.29
2023-05-17T08:55:54.669Z,1023.31
2023-05-17T08:56:55.349Z,1023.36
2023-05-17T08:57:55.320Z,1023.30
2023-05-17T08:58:56.940Z,1023.33
2023-05-17T08:59:57.078Z,1023.26
2023-05-17T09:00:55.301Z,1023.26
2023-05-17T09:01:57.063Z,1023.37
2023-05-17T09:02:55.364Z,1023.39
2023-05-17T09:03:55.422Z,1023.39
2023-05-17T09:04:55.362Z,1023.38
2023-05-17T09:05:55.313Z,1023.34
2023-05-17T09:06:57.020Z,1023.37
2023-05-17T09:07:55.222Z,1023.41
2023-05-17T09:08:55.695Z,1023.42
2023-05-17T09:09:56.968Z,1023.45
2023-05-17T09:10:56.978Z,1023.45
2023-05-17T09:11:55.179Z,1023.48
2023-05-17T09:12:56.940Z,1023.46
2023-05-17T09:13:56.914Z,1023.50
2023-05-17T09:14:56.902Z,1023.53
2023-05-17T09:15:55.119Z,1023.54
2023-05-17T09:16:56.911Z,1023.57
2023-05-17T09:17:55.382Z,1023.62
2023-05-17T09:18:54.531Z,1023.51
2023-05-17T09:19:54.532Z,1023.53
2023-05-17T09:20:55.068Z,1023.55
2023-05-17T09:21:55.104Z,1023.58
2023-05-17T09:22:55.062Z,1023.55
2023-05-17T09:24:05.671Z,1023.58
2023-05-17T09:24:55.368Z,1023.53
2023-05-17T09:25:55.040Z,1023.54
2023-05-17T09:26:55.036Z,1023.55
2023-05-17T09:27:56.763Z,1023.60
2023-05-17T09:28:54.997Z,1023.54
2023-05-17T09:29:55.328Z,1023.56
2023-05-17T09:30:54.977Z,1023.45
2023-05-17T09:31:54.283Z,1023.48
2023-05-17T09:32:54.979Z,1023.50
2023-05-17T09:33:54.994Z,1023.54
2023-05-17T09:34:54.285Z,1023.53
2023-05-17T09:35:54.247Z,1023.48
2023-05-17T09:36:54.915Z,1023.47
2023-05-17T09:37:54.900Z,1023.53
2023-05-17T09:38:54.876Z,1023.54
2023-05-17T09:39:54.250Z,1023.60
2023-05-17T09:40:54.890Z,1023.62
2023-05-17T09:41:54.861Z,1023.57
2023-05-17T09:42:54.849Z,1023.60
2023-05-17T09:43:54.831Z,1023.58
2023-05-17T09:44:54.833Z,1023.57
2023-05-17T09:45:54.817Z,1023.53
2023-05-17T09:46:54.805Z,1023.57
2023-05-17T09:47:54.833Z,1023.56
2023-05-17T09:48:54.911Z,1023.57
2023-05-17T09:49:54.774Z,1023.66
2023-05-17T09:50:54.805Z,1023.63
2023-05-17T09:51:54.751Z,1023.55
2023-05-17T09:52:54.729Z,1023.50
2023-05-17T09:53:54.718Z,1023.60
2023-05-17T09:54:54.721Z,1023.54
2023-05-17T09:55:54.710Z,1023.52
2023-05-17T09:56:54.705Z,1023.49
2023-05-17T09:57:54.709Z,1023.55
2023-05-17T09:58:54.685Z,1023.52
2023-05-17T09:59:54.668Z,1023.60
2023-05-17T10:00:54.666Z,1023.53
2023-05-17T10:01:54.659Z,1023.56
2023-05-17T10:02:54.696Z,1023.56
2023-05-17T10:03:54.650Z,1023.64
2023-05-17T10:04:54.641Z,1023.61
2023-05-17T10:05:54.614Z,1023.64
2023-05-17T10:06:54.578Z,1023.54
2023-05-17T10:07:54.574Z,1023.52
2023-05-17T10:08:54.574Z,1023.54
2023-05-17T10:09:54.573Z,1023.54
2023-05-17T10:10:54.549Z,1023.50
2023-05-17T10:11:54.539Z,1023.58
2023-05-17T10:12:54.524Z,1023.61
2023-05-17T10:13:54.515Z,1023.63
2023-05-17T10:14:54.527Z,1023.63
2023-05-17T10:15:54.493Z,1023.58
2023-05-17T10:16:54.473Z,1023.57
2023-05-17T10:17:54.502Z,1023.52
2023-05-17T10:18:54.502Z,1023.56
2023-05-17T10:19:54.556Z,1023.59
2023-05-17T10:20:54.436Z,1023.56
2023-05-17T10:21:54.416Z,1023.60
2023-05-17T10:22:54.862Z,1023.51
2023-05-17T10:23:54.403Z,1023.47
2023-05-17T10:24:54.400Z,1023.52
2023-05-17T10:25:54.376Z,1023.60
2023-05-17T10:26:54.377Z,1023.47
2023-05-17T10:27:54.363Z,1023.46
2023-05-17T10:28:54.359Z,1023.44
2023-05-17T10:29:54.363Z,1023.46
2023-05-17T10:30:54.318Z,1023.45
2023-05-17T10:31:54.323Z,1023.45
2023-05-17T10:32:54.428Z,1023.50
2023-05-17T10:33:54.334Z,1023.50
2023-05-17T10:35:06.086Z,1023.61
2023-05-17T10:35:57.043Z,1023.47
2023-05-17T10:36:54.270Z,1023.48
2023-05-17T10:37:54.268Z,1023.41
2023-05-17T10:38:54.316Z,1023.48
2023-05-17T10:39:54.220Z,1023.56
2023-05-17T10:40:54.229Z,1023.66
2023-05-17T10:42:03.301Z,1023.65
2023-05-17T10:42:55.204Z,1023.63
2023-05-17T10:43:54.195Z,1023.52
2023-05-17T10:44:54.167Z,1023.48
2023-05-17T10:45:54.181Z,1023.39
2023-05-17T10:46:53.500Z,1023.38
2023-05-17T10:47:54.177Z,1023.42
2023-05-17T10:48:54.159Z,1023.44
2023-05-17T10:49:54.105Z,1023.45
2023-05-17T10:51:01.521Z,1023.50
2023-05-17T10:51:54.411Z,1023.43
2023-05-17T10:52:54.092Z,1023.37
2023-05-17T10:53:54.061Z,1023.44
2023-05-17T10:54:55.245Z,1023.38
2023-05-17T10:55:54.057Z,1023.38
2023-05-17T10:56:54.055Z,1023.36
2023-05-17T10:57:54.014Z,1023.39
2023-05-17T10:58:54.007Z,1023.37
2023-05-17T10:59:55.783Z,1023.37
2023-05-17T11:00:55.181Z,1023.32
2023-05-17T11:01:55.751Z,1023.26
2023-05-17T11:02:54.011Z,1023.32
2023-05-17T11:03:53.286Z,1023.33
2023-05-17T11:04:54.022Z,1023.23
2023-05-17T11:05:54.321Z,1023.23
2023-05-17T11:06:54.049Z,1023.23
2023-05-17T11:07:53.903Z,1023.26
2023-05-17T11:08:53.933Z,1023.30
2023-05-17T11:09:53.223Z,1023.28
2023-05-17T11:10:53.235Z,1023.29
2023-05-17T11:11:53.216Z,1023.35
2023-05-17T11:12:53.953Z,1023.28
2023-05-17T11:13:53.171Z,1023.37
2023-05-17T11:14:53.861Z,1023.23
2023-05-17T11:15:53.156Z,1023.25
2023-05-17T11:16:53.565Z,1023.25
2023-05-17T11:17:53.240Z,1023.29
2023-05-17T11:18:53.319Z,1023.30
2023-05-17T11:19:53.206Z,1023.28
2023-05-17T11:20:54.017Z,1023.32
2023-05-17T11:21:53.123Z,1023.27
2023-05-17T11:22:53.762Z,1023.34
2023-05-17T11:23:53.751Z,1023.30
2023-05-17T11:24:53.061Z,1023.24
2023-05-17T11:25:54.997Z,1023.27
2023-05-17T11:26:53.704Z,1023.27
2023-05-17T11:27:53.062Z,1023.25
2023-05-17T11:28:53.026Z,1023.23
2023-05-17T11:29:53.019Z,1023.14
2023-05-17T11:30:53.025Z,1023.24
2023-05-17T11:31:53.668Z,1023.25
2023-05-17T11:32:53.802Z,1023.24
2023-05-17T11:33:53.005Z,1023.12
2023-05-17T11:34:53.624Z,1023.19
2023-05-17T11:35:52.985Z,1023.18
2023-05-17T11:36:52.950Z,1023.19
2023-05-17T11:37:53.620Z,1023.22
2023-05-17T11:39:01.461Z,1023.21
2023-05-17T11:39:55.978Z,1023.27
2023-05-17T11:40:52.903Z,1023.19
2023-05-17T11:41:52.893Z,1023.19
2023-05-17T11:42:52.869Z,1023.24
2023-05-17T11:43:53.539Z,1023.22
2023-05-17T11:44:52.857Z,1023.23
2023-05-17T11:45:53.739Z,1023.25
2023-05-17T11:46:52.825Z,1023.22
2023-05-17T11:47:53.564Z,1023.19
2023-05-17T11:48:53.195Z,1023.23
2023-05-17T11:49:54.928Z,1023.21
2023-05-17T11:50:53.468Z,1023.15
2023-05-17T11:51:52.788Z,1023.18
2023-05-17T11:52:53.451Z,1023.26
2023-05-17T11:53:52.778Z,1023.25
2023-05-17T11:54:53.428Z,1023.31
2023-05-17T11:55:55.170Z,1023.29
2023-05-17T11:56:53.396Z,1023.31
2023-05-17T11:57:52.698Z,1023.37
2023-05-17T11:58:52.723Z,1023.38
2023-05-17T11:59:53.364Z,1023.34
2023-05-17T12:00:52.670Z,1023.31
2023-05-17T12:01:53.343Z,1023.28
2023-05-17T12:02:52.672Z,1023.32
2023-05-17T12:03:53.304Z,1023.34
2023-05-17T12:04:52.689Z,1023.29